DAL1123 KDTW-KLAS
Flight info
| Callsign | DAL1123 |
|---|---|
| Flight time | N/A |
| Altitude | 40000 |
| Route | KAYLN3 SMUUV OBK IOW J60 HVE GGAPP CHOWW4 |
| Aircraft | A359/H-SDE2E3GHIJ3J4J5LM1ORWXY/LB1D1 |
Departure
| Time | 2026-05-05 16:22 |
|---|---|
| Airport | Detroit Metropolitan Wayne County Airport (KDTW) |
Arrival
| Time | N/A |
|---|---|
| Airport | Harry Reid International Airport (KLAS) |
| Time | Latitude | Longitude | Altitude | Speed | Heading |
|---|---|---|---|---|---|
| 2026-05-05 15:28 | 42.21265 | -83.35553 | 652 ft | 0 kts | 119° |
| 2026-05-05 16:08 | 42.21276 | -83.35579 | 652 ft | 4 kts | 119° |
| 2026-05-05 16:08 | 42.21286 | -83.35605 | 655 ft | 4 kts | 117° |
| 2026-05-05 16:08 | 42.21295 | -83.35633 | 654 ft | 4 kts | 87° |
| 2026-05-05 16:08 | 42.21291 | -83.35656 | 656 ft | 4 kts | 42° |
| 2026-05-05 16:09 | 42.21272 | -83.35674 | 656 ft | 4 kts | 28° |
| 2026-05-05 16:09 | 42.21255 | -83.35686 | 656 ft | 0 kts | 28° |
| 2026-05-05 16:13 | 42.21365 | -83.35606 | 652 ft | 12 kts | 28° |
| 2026-05-05 16:13 | 42.21444 | -83.35547 | 652 ft | 15 kts | 28° |
| 2026-05-05 16:13 | 42.21548 | -83.35508 | 652 ft | 16 kts | 1° |
| 2026-05-05 16:14 | 42.21784 | -83.35524 | 651 ft | 10 kts | 344° |
| 2026-05-05 16:14 | 42.21818 | -83.35696 | 651 ft | 12 kts | 268° |
| 2026-05-05 16:15 | 42.21813 | -83.35947 | 652 ft | 14 kts | 268° |
| 2026-05-05 16:15 | 42.21814 | -83.36219 | 657 ft | 14 kts | 282° |
| 2026-05-05 16:16 | 42.21909 | -83.36457 | 655 ft | 15 kts | 300° |
| 2026-05-05 16:16 | 42.22013 | -83.36715 | 655 ft | 11 kts | 297° |
| 2026-05-05 16:17 | 42.22074 | -83.36777 | 659 ft | 5 kts | 16° |
| 2026-05-05 16:17 | 42.22117 | -83.36750 | 655 ft | 8 kts | 26° |
| 2026-05-05 16:18 | 42.22260 | -83.36649 | 653 ft | 14 kts | 31° |
| 2026-05-05 16:18 | 42.22354 | -83.36574 | 656 ft | 17 kts | 29° |
| 2026-05-05 16:18 | 42.22479 | -83.36483 | 653 ft | 0 kts | 28° |
| 2026-05-05 16:20 | 42.22535 | -83.36476 | 655 ft | 11 kts | 333° |
| 2026-05-05 16:20 | 42.22592 | -83.36650 | 650 ft | 7 kts | 228° |
| 2026-05-05 16:21 | 42.22283 | -83.36881 | 652 ft | 77 kts | 208° |
| 2026-05-05 16:22 | 42.19694 | -83.38753 | 2074 ft | 152 kts | 212° |
| 2026-05-05 16:22 | 42.17862 | -83.40743 | 2933 ft | 194 kts | 240° |
| 2026-05-05 16:23 | 42.16319 | -83.44209 | 3949 ft | 232 kts | 239° |
| 2026-05-05 16:23 | 42.15307 | -83.45938 | 4807 ft | 238 kts | 230° |
| 2026-05-05 16:23 | 42.12930 | -83.49019 | 6744 ft | 240 kts | 229° |
| 2026-05-05 16:24 | 42.11836 | -83.50743 | 6965 ft | 244 kts | 233° |
| 2026-05-05 16:24 | 42.10786 | -83.52549 | 7038 ft | 244 kts | 233° |
| 2026-05-05 16:24 | 42.09043 | -83.55544 | 7022 ft | 244 kts | 233° |
| 2026-05-05 16:25 | 42.07637 | -83.57938 | 7023 ft | 245 kts | 233° |
| 2026-05-05 16:25 | 42.06314 | -83.61267 | 7014 ft | 245 kts | 258° |
| 2026-05-05 16:25 | 42.06532 | -83.64310 | 7186 ft | 255 kts | 287° |
| 2026-05-05 16:26 | 42.08527 | -83.68377 | 8560 ft | 264 kts | 300° |
| 2026-05-05 16:26 | 42.10710 | -83.72358 | 9039 ft | 265 kts | 299° |
| 2026-05-05 16:27 | 42.11447 | -83.73715 | 9036 ft | 266 kts | 299° |
| 2026-05-05 16:27 | 42.12528 | -83.75714 | 9037 ft | 266 kts | 299° |
| 2026-05-05 16:27 | 42.13620 | -83.77735 | 9039 ft | 266 kts | 299° |
| 2026-05-05 16:27 | 42.14706 | -83.79750 | 9036 ft | 266 kts | 299° |
| 2026-05-05 16:28 | 42.15794 | -83.81771 | 9073 ft | 265 kts | 299° |
| 2026-05-05 16:28 | 42.16881 | -83.83787 | 9438 ft | 267 kts | 299° |
| 2026-05-05 16:28 | 42.17966 | -83.85809 | 10234 ft | 271 kts | 298° |
| 2026-05-05 16:28 | 42.19099 | -83.87936 | 10808 ft | 289 kts | 299° |
| 2026-05-05 16:29 | 42.20316 | -83.90227 | 11239 ft | 311 kts | 299° |
| 2026-05-05 16:29 | 42.21626 | -83.92677 | 11704 ft | 329 kts | 300° |
| 2026-05-05 16:29 | 42.22987 | -83.95213 | 12458 ft | 336 kts | 300° |
| 2026-05-05 16:29 | 42.24375 | -83.97796 | 13307 ft | 341 kts | 300° |
| 2026-05-05 16:30 | 42.25758 | -84.00374 | 14106 ft | 345 kts | 300° |
| 2026-05-05 16:30 | 42.27188 | -84.03042 | 14909 ft | 348 kts | 300° |
| 2026-05-05 16:30 | 42.28603 | -84.05687 | 15704 ft | 351 kts | 300° |
| 2026-05-05 16:30 | 42.30042 | -84.08381 | 16516 ft | 354 kts | 301° |
| 2026-05-05 16:31 | 42.31473 | -84.11065 | 17283 ft | 357 kts | 301° |
| 2026-05-05 16:31 | 42.32934 | -84.13809 | 18067 ft | 361 kts | 301° |
| 2026-05-05 16:31 | 42.34406 | -84.16576 | 18772 ft | 364 kts | 301° |
| 2026-05-05 16:31 | 42.35891 | -84.19368 | 19484 ft | 367 kts | 301° |
| 2026-05-05 16:32 | 42.37391 | -84.22193 | 20233 ft | 370 kts | 301° |
| 2026-05-05 16:32 | 42.38887 | -84.25012 | 20952 ft | 373 kts | 301° |
| 2026-05-05 16:32 | 42.40405 | -84.27875 | 21691 ft | 376 kts | 301° |
| 2026-05-05 16:32 | 42.41842 | -84.30849 | 22413 ft | 376 kts | 294° |
| 2026-05-05 16:33 | 42.42842 | -84.34126 | 23141 ft | 374 kts | 282° |
| 2026-05-05 16:33 | 42.43259 | -84.37583 | 23791 ft | 374 kts | 272° |
| 2026-05-05 16:33 | 42.43376 | -84.41119 | 24392 ft | 377 kts | 271° |
| 2026-05-05 16:33 | 42.43454 | -84.44685 | 25009 ft | 380 kts | 271° |
| 2026-05-05 16:34 | 42.43535 | -84.48225 | 25598 ft | 383 kts | 271° |
| 2026-05-05 16:34 | 42.43622 | -84.51849 | 26189 ft | 386 kts | 271° |
| 2026-05-05 16:34 | 42.43712 | -84.55497 | 26801 ft | 389 kts | 271° |
| 2026-05-05 16:34 | 42.43804 | -84.59184 | 27395 ft | 392 kts | 271° |
| 2026-05-05 16:35 | 42.43895 | -84.62849 | 27963 ft | 396 kts | 271° |
| 2026-05-05 16:35 | 42.43991 | -84.66610 | 28516 ft | 399 kts | 271° |